Time;durP1;ratioP1;P1;durP2;ratioP2;P2;SDS_P1;SDS_P2;PMS_P1;PMS_P2;Temp;Humidity;BMP_temperature;BMP_pressure;BME280_temperature;BME280_humidity;BME280_pressure;Samples;Min_cycle;Max_cycle;Signal;HPM_P1;HPM_P2
2022/04/16 00:01:43;;;;;;;14.85;9.73;;;;;;;9.66;nan;103004.84;5066889;28;20041;-50
2022/04/16 00:04:09;;;;;;;13.57;10.02;;;;;;;9.35;nan;102956.47;5051200;28;20501;-51
2022/04/16 00:06:35;;;;;;;11.80;9.25;;;;;;;9.79;nan;103032.97;5051446;28;20037;-52
2022/04/16 00:09:01;;;;;;;10.18;9.18;;;;;;;9.82;nan;103028.59;5050126;28;20028;-52
2022/04/16 00:11:26;;;;;;;12.38;10.18;;;;;;;9.80;nan;103027.72;5050010;28;20032;-53
2022/04/16 00:13:51;;;;;;;11.25;9.95;;;;;;;9.39;nan;102956.50;5051393;28;20033;-51
2022/04/16 00:16:17;;;;;;;10.45;9.45;;;;;;;9.77;nan;103024.19;5050960;28;20083;-52
2022/04/16 00:18:44;;;;;;;11.70;9.50;;;;;;;9.28;nan;102939.75;5051100;28;20151;-52
2022/04/16 00:21:10;;;;;;;12.38;9.73;;;;;;;9.75;nan;103029.44;5066652;28;20029;-52
2022/04/16 00:23:37;;;;;;;14.00;10.63;;;;;;;9.33;nan;102950.31;5051228;28;20390;-52
2022/04/16 00:26:02;;;;;;;13.48;10.75;;;;;;;9.75;nan;103039.97;5066398;28;20082;-51
2022/04/16 00:28:28;;;;;;;10.48;9.45;;;;;;;9.77;nan;103034.72;5051027;28;20450;-48
2022/04/16 00:30:55;;;;;;;12.52;10.00;;;;;;;9.46;nan;102981.06;5066530;28;20470;-53
2022/04/16 00:33:21;;;;;;;10.68;9.48;;;;;;;9.72;nan;103031.19;5051188;28;20029;-53
2022/04/16 00:35:46;;;;;;;10.70;9.52;;;;;;;9.55;nan;103010.91;5049842;28;20512;-52
2022/04/16 00:38:12;;;;;;;11.55;9.23;;;;;;;9.35;nan;102972.22;5066634;28;20029;-53
2022/04/16 00:40:37;;;;;;;13.50;10.20;;;;;;;9.67;nan;103027.63;5033344;28;20068;-52
2022/04/16 00:43:05;;;;;;;13.68;10.63;;;;;;;9.63;nan;103021.50;5051178;28;20127;-53
2022/04/16 00:45:31;;;;;;;10.77;9.70;;;;;;;9.53;nan;103019.66;5049602;28;20045;-55
2022/04/16 00:47:57;;;;;;;13.82;10.57;;;;;;;9.67;nan;103035.53;5050839;28;20440;-54
2022/04/16 00:50:23;;;;;;;13.25;11.23;;;;;;;9.14;nan;102957.19;5066279;28;20128;-51
2022/04/16 00:52:48;;;;;;;12.77;11.43;;;;;;;9.65;nan;103038.16;5049588;28;20413;-51
2022/04/16 00:55:13;;;;;;;12.00;10.70;;;;;;;9.66;nan;103036.41;5050915;28;20033;-50
2022/04/16 00:57:40;;;;;;;11.32;10.23;;;;;;;9.52;nan;103018.78;5050947;28;20037;-49
2022/04/16 01:00:07;;;;;;;12.05;10.70;;;;;;;9.34;nan;102981.84;5066171;28;20033;-54
2022/04/16 01:02:36;;;;;;;14.50;11.32;;;;;;;9.34;nan;102973.13;5050572;28;20033;-52
2022/04/16 01:05:05;;;;;;;11.65;10.43;;;;;;;9.42;nan;103005.59;5050902;28;20029;-51
2022/04/16 01:07:31;;;;;;;12.88;11.50;;;;;;;9.20;nan;102964.22;5066244;28;20091;-50
2022/04/16 01:09:57;;;;;;;11.82;10.60;;;;;;;9.62;nan;103030.25;5051714;28;20116;-56
2022/04/16 01:12:22;;;;;;;12.95;11.27;;;;;;;9.21;nan;102966.88;5054176;28;20116;-52
2022/04/16 01:14:49;;;;;;;12.40;10.80;;;;;;;9.16;nan;102970.34;5054239;28;20498;-51
2022/04/16 01:17:15;;;;;;;12.95;11.63;;;;;;;9.44;nan;103023.13;5054749;28;20033;-55
2022/04/16 01:19:41;;;;;;;12.05;10.85;;;;;;;9.14;nan;102972.06;5054845;28;20116;-55
2022/04/16 01:22:09;;;;;;;13.18;10.93;;;;;;;9.54;nan;103045.94;5054724;28;20029;-51
2022/04/16 01:24:37;;;;;;;11.68;10.57;;;;;;;8.94;nan;102940.41;5070002;28;20055;-50
2022/04/16 01:27:03;;;;;;;12.77;11.48;;;;;;;9.42;nan;103021.34;5054305;28;20107;-51
2022/04/16 01:29:28;;;;;;;12.40;11.10;;;;;;;9.48;nan;103034.53;5054156;28;20049;-51
2022/04/16 01:31:53;;;;;;;13.05;11.70;;;;;;;9.11;nan;102982.59;5053961;28;20028;-52
2022/04/16 01:34:19;;;;;;;12.43;11.13;;;;;;;9.47;nan;103031.03;5054264;28;20064;-53
2022/04/16 01:36:45;;;;;;;12.38;11.07;;;;;;;9.38;nan;103024.81;5054263;28;20040;-49
2022/04/16 01:39:11;;;;;;;12.63;11.43;;;;;;;9.45;nan;103038.03;5054204;28;20044;-50
2022/04/16 01:41:36;;;;;;;13.05;11.50;;;;;;;9.08;nan;102972.91;5054077;28;20068;-49
2022/04/16 01:44:01;;;;;;;13.82;12.50;;;;;;;9.41;nan;103035.34;5054132;28;20380;-52
2022/04/16 01:46:27;;;;;;;14.38;11.85;;;;;;;9.38;nan;103035.34;5054492;28;20462;-50
2022/04/16 01:48:53;;;;;;;14.38;11.23;;;;;;;9.24;nan;103027.34;5054117;28;20120;-54
2022/04/16 01:51:20;;;;;;;12.75;11.35;;;;;;;9.14;nan;103032.50;5069170;28;20500;-51
2022/04/16 01:53:45;;;;;;;12.50;11.23;;;;;;;9.00;nan;103040.28;5069284;28;20045;-52
2022/04/16 01:56:11;;;;;;;14.02;11.55;;;;;;;8.52;nan;102969.81;5053887;28;20033;-52
2022/04/16 01:58:38;;;;;;;12.75;11.45;;;;;;;8.53;nan;102997.81;5053390;28;20100;-51
2022/04/16 02:01:05;;;;;;;14.73;11.55;;;;;;;8.64;nan;103032.91;5053934;28;20033;-54
2022/04/16 02:03:30;;;;;;;14.57;12.05;;;;;;;8.49;nan;103011.78;5069170;28;20040;-52
2022/04/16 02:05:55;;;;;;;12.85;11.65;;;;;;;8.19;nan;102962.44;5053777;28;20037;-53
2022/04/16 02:08:21;;;;;;;13.82;12.43;;;;;;;8.12;nan;102967.56;5053585;28;20047;-50
2022/04/16 02:10:46;;;;;;;13.98;12.52;;;;;;;8.01;nan;102972.69;5053468;28;20489;-53
2022/04/16 02:13:11;;;;;;;13.73;12.40;;;;;;;8.27;nan;103036.88;5053485;28;20419;-52
2022/04/16 02:15:37;;;;;;;14.55;12.93;;;;;;;7.86;nan;102967.25;5068860;28;20044;-53
2022/04/16 02:18:02;;;;;;;14.93;13.50;;;;;;;8.19;nan;103035.00;5053783;28;20192;-51
2022/04/16 02:20:28;;;;;;;15.32;12.73;;;;;;;8.12;nan;103041.00;5053429;28;20493;-50
2022/04/16 02:22:53;;;;;;;13.95;12.38;;;;;;;8.08;nan;103041.84;5052888;28;20037;-52
2022/04/16 02:25:20;;;;;;;13.55;12.18;;;;;;;7.68;nan;102986.25;5053219;28;20458;-49
2022/04/16 02:27:46;;;;;;;14.95;13.07;;;;;;;7.97;nan;103049.56;5053116;28;20441;-51
2022/04/16 02:30:14;;;;;;;13.93;12.52;;;;;;;7.56;nan;102980.84;5053393;28;20087;-55
2022/04/16 02:32:41;;;;;;;13.40;12.13;;;;;;;7.84;nan;103051.16;5051756;28;20396;-53
2022/04/16 02:35:07;;;;;;;14.82;13.18;;;;;;;7.79;nan;103041.47;5068648;28;20040;-53
2022/04/16 02:37:33;;;;;;;15.50;13.75;;;;;;;7.74;nan;103043.13;5053239;28;20151;-54
2022/04/16 02:39:58;;;;;;;14.88;13.35;;;;;;;7.63;nan;103058.72;5053185;28;20457;-54
2022/04/16 02:42:23;;;;;;;15.35;13.85;;;;;;;7.61;nan;103060.44;5052781;28;20045;-53
2022/04/16 02:47:33;;;;;;;20.17;14.73;;;;;;;7.20;nan;103009.13;5052804;28;20063;-52
2022/04/16 02:49:58;;;;;;;16.25;14.65;;;;;;;7.46;nan;103062.81;5052841;28;20037;-53
2022/04/16 02:52:25;;;;;;;16.23;14.55;;;;;;;7.00;nan;102985.25;5052847;28;20036;-52
2022/04/16 02:54:52;;;;;;;17.48;14.65;;;;;;;7.38;nan;103075.78;5052554;28;20107;-53
2022/04/16 02:57:18;;;;;;;18.35;14.98;;;;;;;7.31;nan;103065.19;5052499;28;20036;-53
2022/04/16 02:59:43;;;;;;;17.33;15.07;;;;;;;7.27;nan;103061.63;5052493;28;20025;-51
2022/04/16 03:02:08;;;;;;;19.02;15.02;;;;;;;6.88;nan;103005.09;5052673;28;20064;-54
2022/04/16 03:04:34;;;;;;;17.10;15.30;;;;;;;7.11;nan;103056.13;5052282;28;20036;-53
2022/04/16 03:06:59;;;;;;;17.30;15.60;;;;;;;7.13;nan;103075.34;5052272;28;20377;-52
2022/04/16 03:09:24;;;;;;;18.95;17.05;;;;;;;7.06;nan;103060.41;5050988;28;20477;-49
2022/04/16 03:11:50;;;;;;;18.08;16.25;;;;;;;7.06;nan;103069.16;5051754;28;20029;-54
2022/04/16 03:19:45;;;;;;;19.95;16.75;;;;;;;6.65;nan;103007.31;5051152;28;20105;-53
2022/04/16 03:22:11;;;;;;;18.60;16.77;;;;;;;6.95;nan;103056.69;5052538;28;20039;-51
2022/04/16 03:24:36;;;;;;;19.25;17.10;;;;;;;6.66;nan;103011.69;5051069;28;20029;-51
2022/04/16 03:27:01;;;;;;;19.55;17.23;;;;;;;6.61;nan;103003.75;5052104;28;20416;-52
2022/04/16 03:29:26;;;;;;;20.45;16.75;;;;;;;6.59;nan;103004.59;5051992;28;20405;-53
2022/04/16 03:31:52;;;;;;;18.23;16.33;;;;;;;6.86;nan;103053.94;5052102;28;20033;-54
2022/04/16 03:34:17;;;;;;;20.10;17.58;;;;;;;6.84;nan;103066.09;5049300;28;20453;-55
2022/04/16 03:36:42;;;;;;;21.23;18.92;;;;;;;6.46;nan;103018.28;5052063;28;20052;-52
2022/04/16 03:39:08;;;;;;;20.50;18.40;;;;;;;6.46;nan;103018.28;5051726;28;20035;-52
2022/04/16 03:41:33;;;;;;;24.17;18.95;;;;;;;6.67;nan;103076.25;5051808;28;20025;-51
2022/04/16 03:43:58;;;;;;;21.60;17.75;;;;;;;6.66;nan;103071.88;5051948;28;20029;-53
2022/04/16 03:46:24;;;;;;;19.85;17.67;;;;;;;6.62;nan;103070.97;5066867;28;20040;-51
2022/04/16 03:48:49;;;;;;;19.75;17.63;;;;;;;6.62;nan;103064.84;5051590;28;20489;-53
2022/04/16 03:51:14;;;;;;;24.58;19.58;;;;;;;6.26;nan;103004.81;5052057;28;20359;-54
2022/04/16 03:53:39;;;;;;;22.02;19.60;;;;;;;6.55;nan;103076.91;5051472;28;20045;-51
2022/04/16 04:01:32;;;;;;;22.00;19.33;;;;;;;6.10;nan;103021.94;5050496;28;20052;-49
2022/04/16 04:03:58;;;;;;;24.20;19.67;;;;;;;6.36;nan;103071.28;5051573;28;20033;-51
2022/04/16 04:06:24;;;;;;;22.25;19.83;;;;;;;6.01;nan;103016.50;5051445;28;20052;-52
2022/04/16 04:08:49;;;;;;;24.50;20.10;;;;;;;6.36;nan;103090.47;5051628;28;20090;-49
2022/04/16 04:11:14;;;;;;;26.30;21.13;;;;;;;5.94;nan;103021.59;5051327;28;20052;-51
2022/04/16 04:13:40;;;;;;;25.77;21.17;;;;;;;5.93;nan;103025.94;5051416;28;20032;-53
2022/04/16 04:16:05;;;;;;;25.40;21.27;;;;;;;6.26;nan;103085.00;5051229;28;20044;-52
2022/04/16 04:18:30;;;;;;;29.13;21.88;;;;;;;5.86;nan;103023.16;5051577;28;20037;-51
2022/04/16 04:20:56;;;;;;;24.88;21.73;;;;;;;5.89;nan;103033.69;5051313;28;20485;-51
2022/04/16 04:23:22;;;;;;;25.60;21.77;;;;;;;6.16;nan;103083.94;5051319;28;20462;-52
2022/04/16 04:25:48;;;;;;;24.27;21.67;;;;;;;6.18;nan;103090.09;5051866;28;20048;-56
2022/04/16 04:28:13;;;;;;;26.25;21.13;;;;;;;6.08;nan;103083.78;5051229;28;20122;-49
2022/04/16 04:30:38;;;;;;;27.02;21.60;;;;;;;5.81;nan;103032.59;5051256;28;20163;-50
2022/04/16 04:33:04;;;;;;;25.83;20.88;;;;;;;6.03;nan;103077.56;5051438;28;20040;-51
2022/04/16 04:35:29;;;;;;;28.42;21.27;;;;;;;6.04;nan;103094.16;5050922;28;20073;-48
2022/04/16 04:37:54;;;;;;;26.50;22.08;;;;;;;6.01;nan;103086.25;5051193;28;20029;-51
2022/04/16 04:40:20;;;;;;;30.40;23.05;;;;;;;5.74;nan;103044.66;5066726;28;20040;-49
2022/04/16 04:42:45;;;;;;;28.98;22.85;;;;;;;5.75;nan;103050.75;5051368;28;20040;-50
2022/04/16 04:45:13;;;;;;;27.17;22.77;;;;;;;5.68;nan;103048.00;5052266;28;20041;-49
2022/04/16 04:47:38;;;;;;;29.67;21.80;;;;;;;5.53;nan;103031.09;5055335;28;20041;-49
2022/04/16 04:50:04;;;;;;;29.92;22.73;;;;;;;6.02;nan;103114.13;5055059;28;20090;-49
2022/04/16 04:52:30;;;;;;;26.48;22.02;;;;;;;6.00;nan;103116.72;5054907;28;20029;-52
2022/04/16 04:54:57;;;;;;;32.15;22.65;;;;;;;6.01;nan;103115.00;5070195;28;20033;-52
2022/04/16 04:57:23;;;;;;;27.25;21.45;;;;;;;5.71;nan;103055.03;5054773;28;20032;-50
2022/04/16 04:59:48;;;;;;;27.13;21.17;;;;;;;6.00;nan;103101.03;5054578;28;20250;-50
2022/04/16 05:02:13;;;;;;;28.95;22.70;;;;;;;5.98;nan;103102.72;5055348;28;20115;-52
2022/04/16 05:04:39;;;;;;;25.40;22.63;;;;;;;5.97;nan;103111.41;5053680;28;20033;-55
2022/04/16 05:07:05;;;;;;;29.15;21.48;;;;;;;5.91;nan;103102.56;5054753;28;20504;-53
2022/04/16 05:09:30;;;;;;;27.08;23.05;;;;;;;5.97;nan;103115.75;5053395;28;20037;-52
2022/04/16 05:11:56;;;;;;;28.10;23.30;;;;;;;5.98;nan;103115.78;5069729;28;20119;-51
2022/04/16 05:14:22;;;;;;;29.02;23.50;;;;;;;5.99;nan;103122.78;5053307;28;20489;-52
2022/04/16 05:16:48;;;;;;;31.27;24.02;;;;;;;5.69;nan;103062.81;5053499;28;20032;-52
2022/04/16 05:19:14;;;;;;;28.23;21.77;;;;;;;6.03;nan;103124.63;5054780;28;20071;-51
2022/04/16 05:21:39;;;;;;;27.98;22.25;;;;;;;6.04;nan;103125.53;5053551;28;20037;-52
2022/04/16 05:24:06;;;;;;;26.05;22.23;;;;;;;6.06;nan;103129.94;5054737;28;20037;-52
2022/04/16 05:26:32;;;;;;;29.67;23.65;;;;;;;6.08;nan;103136.06;5054404;28;20090;-53
2022/04/16 05:28:57;;;;;;;28.45;23.60;;;;;;;6.11;nan;103136.13;5053064;28;20116;-52
2022/04/16 05:31:26;;;;;;;29.73;22.75;;;;;;;6.06;nan;103116.84;5054561;28;20044;-50
2022/04/16 05:36:38;;;;;;;26.90;21.60;;;;;;;6.27;nan;103144.31;5054283;28;20081;-52
2022/04/16 05:39:03;;;;;;;27.83;22.00;;;;;;;6.30;nan;103136.56;5054365;28;20029;-51
2022/04/16 05:41:29;;;;;;;26.90;21.80;;;;;;;6.37;nan;103143.66;5052697;28;20090;-52
2022/04/16 05:43:54;;;;;;;25.73;22.08;;;;;;;6.14;nan;103096.97;5054461;28;20025;-51
2022/04/16 05:46:19;;;;;;;29.83;23.33;;;;;;;6.22;nan;103091.91;5053058;28;20041;-51
2022/04/16 05:48:45;;;;;;;29.95;23.35;;;;;;;6.33;nan;103103.50;5054168;28;20037;-50
2022/04/16 05:51:12;;;;;;;27.13;22.48;;;;;;;6.72;nan;103148.78;5053977;28;20057;-54
2022/04/16 05:53:37;;;;;;;27.05;21.25;;;;;;;6.52;nan;103097.78;5069318;28;20106;-52
2022/04/16 05:56:03;;;;;;;27.75;21.60;;;;;;;6.92;nan;103154.41;5053381;28;20029;-51
2022/04/16 05:58:28;;;;;;;27.73;22.45;;;;;;;7.02;nan;103147.59;5053426;28;20120;-53
2022/04/16 06:00:54;;;;;;;25.80;21.58;;;;;;;7.08;nan;103148.63;5054227;28;20044;-52
2022/04/16 06:03:19;;;;;;;30.88;22.02;;;;;;;6.95;nan;103107.31;5053856;28;20037;-52
2022/04/16 06:05:46;;;;;;;26.13;21.13;;;;;;;7.24;nan;103139.28;5052497;28;20033;-54
2022/04/16 06:08:11;;;;;;;24.65;21.05;;;;;;;7.45;nan;103165.88;5069005;28;20033;-53
2022/04/16 06:10:37;;;;;;;22.92;19.98;;;;;;;7.53;nan;103177.34;5053377;28;20087;-54
2022/04/16 06:13:04;;;;;;;24.38;21.33;;;;;;;7.62;nan;103172.28;5053997;28;20098;-53
2022/04/16 06:15:30;;;;;;;27.23;21.63;;;;;;;7.69;nan;103174.16;5069026;28;20033;-55
2022/04/16 06:17:55;;;;;;;23.90;21.15;;;;;;;7.42;nan;103117.75;5053868;28;20040;-53
2022/04/16 06:20:20;;;;;;;24.73;20.73;;;;;;;7.88;nan;103178.81;5053672;28;20040;-53
2022/04/16 06:22:45;;;;;;;25.95;20.30;;;;;;;7.96;nan;103180.69;5053657;28;20040;-52
2022/04/16 06:25:12;;;;;;;24.35;20.42;;;;;;;8.11;nan;103187.06;5053432;28;20045;-53
2022/04/16 06:27:38;;;;;;;25.48;21.35;;;;;;;8.24;nan;103194.22;5053140;28;20393;-52
2022/04/16 06:30:08;;;;;;;24.58;21.08;;;;;;;8.41;nan;103200.63;5053037;28;20033;-53
2022/04/16 06:32:34;;;;;;;25.58;20.13;;;;;;;8.25;nan;103146.16;5068475;28;20321;-53
2022/04/16 06:35:01;;;;;;;23.13;19.60;;;;;;;8.63;nan;103209.69;5052883;28;20061;-54
2022/04/16 06:37:26;;;;;;;23.58;19.52;;;;;;;8.74;nan;103212.44;5053118;28;20079;-54
2022/04/16 06:39:51;;;;;;;23.08;20.10;;;;;;;8.94;nan;103197.81;5068334;28;20029;-55
2022/04/16 06:42:17;;;;;;;22.92;18.83;;;;;;;9.10;nan;103198.88;5053209;28;20037;-55
2022/04/16 06:44:42;;;;;;;22.85;18.77;;;;;;;9.26;nan;103206.94;5053272;28;20089;-52
2022/04/16 06:47:07;;;;;;;23.35;20.55;;;;;;;9.18;nan;103160.41;5053090;28;20060;-53
2022/04/16 06:49:33;;;;;;;24.27;19.75;;;;;;;9.60;nan;103221.31;5053020;28;20552;-55
2022/04/16 06:51:58;;;;;;;21.95;19.30;;;;;;;9.81;nan;103218.84;5052997;28;20040;-54
2022/04/16 06:54:23;;;;;;;22.33;20.00;;;;;;;10.01;nan;103227.78;5051456;28;20088;-56
2022/04/16 06:56:49;;;;;;;21.15;18.50;;;;;;;10.23;nan;103218.34;5051831;28;20087;-54
2022/04/16 06:59:14;;;;;;;19.80;17.70;;;;;;;10.74;nan;103223.91;5052682;28;20033;-56
2022/04/16 07:01:39;;;;;;;20.98;18.10;;;;;;;11.23;nan;103226.72;5053161;28;20037;-55
2022/04/16 07:04:04;;;;;;;21.23;17.88;;;;;;;11.61;nan;103203.94;5052487;28;20405;-54
2022/04/16 07:06:30;;;;;;;18.25;16.35;;;;;;;12.34;nan;103240.91;5052588;28;20119;-54
2022/04/16 07:08:55;;;;;;;19.77;17.67;;;;;;;12.96;nan;103246.88;5067550;28;20073;-59
2022/04/16 07:11:21;;;;;;;19.10;17.13;;;;;;;13.22;nan;103253.84;5052702;28;20035;-55
2022/04/16 07:13:46;;;;;;;18.73;16.58;;;;;;;13.32;nan;103194.72;5052853;28;20468;-56
2022/04/16 07:16:11;;;;;;;22.13;17.45;;;;;;;13.67;nan;103205.91;5052597;28;20091;-56
2022/04/16 07:18:37;;;;;;;19.05;16.98;;;;;;;14.04;nan;103257.69;5051061;28;20029;-59
2022/04/16 07:21:02;;;;;;;19.20;17.30;;;;;;;14.26;nan;103271.63;5052436;28;20052;-58
2022/04/16 07:23:27;;;;;;;20.08;17.67;;;;;;;14.16;nan;103219.59;5052170;28;20029;-59
2022/04/16 07:25:53;;;;;;;18.20;16.42;;;;;;;14.42;nan;103270.59;5052135;28;20063;-59
2022/04/16 07:28:21;;;;;;;19.30;17.25;;;;;;;13.10;nan;103050.31;5052427;28;20390;-57
2022/04/16 07:30:50;;;;;;;19.67;17.48;;;;;;;14.37;nan;103261.84;5051684;28;20035;-59
2022/04/16 07:33:15;;;;;;;19.55;17.55;;;;;;;13.82;nan;103223.47;5050219;28;20037;-59
2022/04/16 07:35:40;;;;;;;20.63;18.50;;;;;;;14.07;nan;103275.31;5050460;28;20059;-59
2022/04/16 07:38:06;;;;;;;21.25;19.13;;;;;;;14.00;nan;103277.16;5051842;28;20037;-59
2022/04/16 07:40:31;;;;;;;20.27;18.27;;;;;;;13.60;nan;103168.94;5051920;28;20044;-59
2022/04/16 07:42:58;;;;;;;19.63;17.52;;;;;;;14.72;nan;103273.81;5051645;28;20036;-59
2022/04/16 07:45:23;;;;;;;20.88;18.77;;;;;;;14.96;nan;103244.38;5050238;28;20062;-59
2022/04/16 07:47:48;;;;;;;19.65;17.58;;;;;;;15.58;nan;103265.69;5051785;28;20041;-60
2022/04/16 07:50:16;;;;;;;19.25;17.25;;;;;;;15.98;nan;103227.84;5067170;28;20051;-58
2022/04/16 07:52:41;;;;;;;20.88;18.77;;;;;;;16.53;nan;103283.56;5051531;28;20041;-58
2022/04/16 07:55:07;;;;;;;19.00;17.00;;;;;;;16.78;nan;103285.75;5051839;28;20474;-59
2022/04/16 07:57:32;;;;;;;19.92;17.90;;;;;;;17.22;nan;103292.81;5051511;28;20040;-57
2022/04/16 07:59:58;;;;;;;19.60;17.60;;;;;;;17.19;nan;103241.47;5050174;28;20389;-59
2022/04/16 08:02:23;;;;;;;19.88;17.88;;;;;;;17.07;nan;103285.19;5066877;28;20041;-58
2022/04/16 08:04:48;;;;;;;20.67;18.60;;;;;;;16.46;nan;103231.41;5066619;28;20037;-57
2022/04/16 08:07:14;;;;;;;20.70;18.67;;;;;;;16.56;nan;103239.22;5051411;28;20037;-59
2022/04/16 08:09:39;;;;;;;20.15;18.10;;;;;;;16.99;nan;103280.94;5051500;28;20037;-57
2022/04/16 08:12:05;;;;;;;21.23;19.02;;;;;;;16.99;nan;103284.44;5051445;28;20500;-58
2022/04/16 08:14:30;;;;;;;19.08;17.15;;;;;;;16.81;nan;103280.38;5050794;28;20037;-58
2022/04/16 08:16:56;;;;;;;20.75;18.60;;;;;;;16.44;nan;103231.44;5051039;28;20095;-55
2022/04/16 08:19:22;;;;;;;19.58;16.65;;;;;;;16.71;nan;103220.28;5050096;28;20072;-58
2022/04/16 08:21:47;;;;;;;20.42;16.92;;;;;;;17.35;nan;103280.13;5051065;28;20449;-57
2022/04/16 08:24:13;;;;;;;18.13;16.33;;;;;;;17.45;nan;103276.38;5051252;28;20055;-60
2022/04/16 08:26:40;;;;;;;18.60;16.67;;;;;;;17.13;nan;103234.47;5066825;28;20048;-59
2022/04/16 08:29:05;;;;;;;19.27;17.27;;;;;;;17.19;nan;103241.47;5051208;28;20069;-58
2022/04/16 08:31:31;;;;;;;18.65;16.75;;;;;;;17.59;nan;103287.63;5049385;28;20504;-57
2022/04/16 08:33:56;;;;;;;19.85;16.08;;;;;;;17.76;nan;103237.47;5051109;28;20037;-60
2022/04/16 08:36:21;;;;;;;17.23;15.52;;;;;;;18.43;nan;103286.41;5050959;28;20485;-58
2022/04/16 08:38:47;;;;;;;18.52;16.73;;;;;;;18.19;nan;103300.34;5048906;28;20118;-59
2022/04/16 08:41:13;;;;;;;16.70;15.07;;;;;;;17.82;nan;103303.94;5050414;28;20144;-58
2022/04/16 08:43:39;;;;;;;17.90;16.20;;;;;;;17.81;nan;103246.22;5048966;28;20036;-58
2022/04/16 08:46:04;;;;;;;18.13;16.30;;;;;;;18.14;nan;103249.84;5050128;28;20418;-56
2022/04/16 08:48:31;;;;;;;18.17;16.30;;;;;;;18.75;nan;103299.78;5050957;28;20080;-57
2022/04/16 08:50:57;;;;;;;17.27;15.40;;;;;;;18.85;nan;103261.25;5051568;28;20135;-58
2022/04/16 08:53:23;;;;;;;19.55;17.50;;;;;;;19.06;nan;103291.75;5066229;28;20050;-58
2022/04/16 08:55:48;;;;;;;18.13;16.23;;;;;;;19.65;nan;103304.22;5051103;28;20405;-57
2022/04/16 08:58:13;;;;;;;16.00;14.43;;;;;;;19.90;nan;103269.59;5050820;28;20157;-58
2022/04/16 09:00:39;;;;;;;16.10;14.55;;;;;;;20.36;nan;103294.81;5050764;28;20056;-58
2022/04/16 09:03:06;;;;;;;15.95;14.38;;;;;;;20.49;nan;103258.69;5049581;28;20094;-59
2022/04/16 09:05:32;;;;;;;16.67;15.05;;;;;;;20.44;nan;103301.63;5050334;28;20060;-60
2022/04/16 09:07:59;;;;;;;16.73;14.82;;;;;;;20.28;nan;103251.41;5049300;28;20397;-58
2022/04/16 09:10:28;;;;;;;14.82;13.38;;;;;;;20.71;nan;103249.81;5066118;28;20033;-62
2022/04/16 09:12:58;;;;;;;25.30;16.13;;;;;;;20.69;nan;103299.81;5050648;28;20470;-59
2022/04/16 09:15:25;;;;;;;14.77;13.35;;;;;;;20.56;nan;103269.09;5050449;28;20033;-59
2022/04/16 09:17:58;;;;;;;16.63;15.05;;;;;;;20.39;nan;103313.41;5050707;28;20395;-58
2022/04/16 09:20:35;;;;;;;16.08;14.45;;;;;;;19.75;nan;103277.22;5049225;28;20564;-59
2022/04/16 09:23:02;;;;;;;16.75;15.15;;;;;;;20.36;nan;103297.47;5049486;28;20044;-58
2022/04/16 09:25:31;;;;;;;15.73;14.13;;;;;;;20.88;nan;103301.84;5049019;28;20029;-60
2022/04/16 09:27:58;;;;;;;15.93;14.30;;;;;;;21.31;nan;103289.50;5050297;28;20466;-59
2022/04/16 09:30:29;;;;;;;15.80;14.20;;;;;;;21.08;nan;103291.28;5050380;28;20116;-60
2022/04/16 09:32:58;;;;;;;;;;;;;;;21.15;nan;103295.50;5053207;28;20036;-59
2022/04/16 09:35:30;;;;;;;15.43;13.88;;;;;;;21.59;nan;103240.19;5054424;28;19917;-60
2022/04/16 09:37:57;;;;;;;15.98;14.38;;;;;;;22.62;nan;103294.81;5054194;28;20025;-60
2022/04/16 09:40:29;;;;;;;15.40;13.90;;;;;;;22.58;nan;103237.69;5052470;28;20033;-60
2022/04/16 09:42:56;;;;;;;14.95;13.48;;;;;;;22.61;nan;103298.44;5053905;28;20029;-60
2022/04/16 09:45:21;;;;;;;14.02;12.73;;;;;;;23.02;nan;103288.53;5052309;28;20044;-59
2022/04/16 09:47:48;;;;;;;14.18;12.80;;;;;;;23.08;nan;103286.44;5053765;28;20474;-60
2022/04/16 09:50:15;;;;;;;14.70;12.93;;;;;;;22.82;nan;103238.44;5054141;28;20052;-61
2022/04/16 09:52:41;;;;;;;16.50;14.90;;;;;;;22.23;nan;103286.66;5068932;28;20032;-61
2022/04/16 09:55:07;;;;;;;15.88;14.25;;;;;;;21.64;nan;103231.00;5069424;28;20120;-61
2022/04/16 09:57:38;;;;;;;15.27;13.80;;;;;;;21.85;nan;103245.34;5053317;28;20187;-62
2022/04/16 10:00:04;;;;;;;16.00;14.43;;;;;;;22.03;nan;103270.56;5053688;28;20037;-61
2022/04/16 10:02:31;;;;;;;14.10;12.75;;;;;;;22.40;nan;103285.00;5053899;28;20040;-61
2022/04/16 10:04:58;;;;;;;15.20;13.60;;;;;;;22.28;nan;103274.81;5051882;28;20041;-60
2022/04/16 10:07:24;;;;;;;14.10;12.43;;;;;;;22.97;nan;103283.41;5068734;28;20055;-61
2022/04/16 10:09:53;;;;;;;15.52;14.05;;;;;;;23.14;nan;103266.50;5068824;28;20185;-60
2022/04/16 10:14:54;;;;;;;14.60;13.27;;;;;;;22.81;nan;103237.56;5053183;28;20055;-61
2022/04/16 10:17:22;;;;;;;12.20;11.00;;;;;;;23.60;nan;103282.19;5052319;28;20142;-60
2022/04/16 10:19:48;;;;;;;14.65;11.10;;;;;;;24.12;nan;103288.56;5053436;28;20389;-60
2022/04/16 10:22:27;;;;;;;12.13;10.95;;;;;;;23.98;nan;103288.38;5068477;28;20037;-60
2022/04/16 10:24:57;;;;;;;12.80;11.55;;;;;;;24.06;nan;103241.28;5053174;28;20028;-60
2022/04/16 10:27:27;;;;;;;11.05;9.95;;;;;;;;;;5067590;28;20044;-61
2022/04/16 10:29:54;;;;;;;14.10;12.52;;;;;;;24.60;nan;103220.53;5053128;28;20032;-62
2022/04/16 10:32:19;;;;;;;14.23;11.35;;;;;;;25.24;nan;103266.41;5053307;28;20115;-60
2022/04/16 10:34:45;;;;;;;12.13;10.90;;;;;;;24.84;nan;103229.16;5053198;28;20116;-61
2022/04/16 10:37:21;;;;;;;10.90;9.38;;;;;;;24.39;nan;103265.63;5052981;28;20056;-60
2022/04/16 10:39:50;;;;;;;10.02;9.05;;;;;;;24.09;nan;103278.81;5051934;28;20523;-61
2022/04/16 10:42:15;;;;;;;9.57;8.68;;;;;;;24.14;nan;103273.22;5052706;28;20112;-61
2022/04/16 10:44:47;;;;;;;9.13;8.32;;;;;;;24.40;nan;103280.81;5052991;28;20109;-61
2022/04/16 10:47:14;;;;;;;10.05;9.15;;;;;;;24.71;nan;103273.81;5052876;28;20102;-59
2022/04/16 10:49:41;;;;;;;9.10;7.57;;;;;;;24.95;nan;103268.03;5053237;28;20055;-60
2022/04/16 10:52:18;;;;;;;9.40;8.50;;;;;;;24.58;nan;103228.69;5051515;28;20040;-61
2022/04/16 10:54:43;;;;;;;8.30;7.50;;;;;;;25.05;nan;103274.63;5052891;28;20049;-61
2022/04/16 10:57:11;;;;;;;7.72;7.03;;;;;;;25.06;nan;103217.09;5067967;28;20444;-60
2022/04/16 10:59:41;;;;;;;9.25;8.45;;;;;;;25.69;nan;103249.44;5050965;28;20539;-62
2022/04/16 11:02:22;;;;;;;13.90;8.43;;;;;;;25.30;nan;103270.59;5052705;28;20037;-61
2022/04/16 11:05:03;;;;;;;8.68;7.88;;;;;;;24.28;nan;103253.69;5035125;28;20613;-60
2022/04/16 11:07:30;;;;;;;8.87;8.07;;;;;;;24.05;nan;103258.38;5052122;28;20078;-60
2022/04/16 11:09:56;;;;;;;9.63;8.65;;;;;;;24.64;nan;103266.06;5052539;28;20025;-62
2022/04/16 11:12:23;;;;;;;8.13;7.32;;;;;;;24.84;nan;103270.41;5052315;28;20060;-62
2022/04/16 11:14:49;;;;;;;8.15;7.35;;;;;;;25.38;nan;103244.94;5052146;28;20040;-61
2022/04/16 11:17:14;;;;;;;8.48;7.68;;;;;;;25.52;nan;103257.66;5051115;28;20428;-61
2022/04/16 11:19:39;;;;;;;8.40;7.45;;;;;;;25.59;nan;103222.16;5067582;28;20095;-60
2022/04/16 11:22:05;;;;;;;6.55;5.95;;;;;;;25.71;nan;103225.97;5067386;28;20036;-59
2022/04/16 11:24:31;;;;;;;7.03;6.43;;;;;;;25.45;nan;103210.41;5067378;28;20033;-61
2022/04/16 11:35:14;;;;;;;6.03;5.43;;;;;;;26.85;nan;103243.34;5052010;28;20454;-61
2022/04/16 11:37:40;;;;;;;6.57;6.00;;;;;;;26.96;nan;103197.56;5052062;28;20033;-61
2022/04/16 11:40:07;;;;;;;6.30;5.70;;;;;;;27.05;nan;103238.41;5051842;28;20162;-61
2022/04/16 11:42:33;;;;;;;6.80;6.20;;;;;;;26.71;nan;103236.91;5051729;28;20029;-60
2022/04/16 11:44:59;;;;;;;6.15;5.55;;;;;;;26.60;nan;103219.66;5051747;28;20540;-61
2022/04/16 11:47:27;;;;;;;6.82;6.28;;;;;;;27.03;nan;103185.41;5066736;28;20037;-61
2022/04/16 11:49:54;;;;;;;6.32;5.82;;;;;;;26.68;nan;103230.84;5051732;28;20196;-59
2022/04/16 11:52:27;;;;;;;8.95;7.28;;;;;;;26.68;nan;103239.81;5051345;28;20115;-60
2022/04/16 11:55:16;;;;;;;7.00;6.30;;;;;;;26.71;nan;103238.75;5051073;28;20048;-59